createdAt,value
2022-09-26T00:00:54.779Z,10.60
2022-09-26T00:03:17.609Z,10.83
2022-09-26T00:05:39.394Z,11.50
2022-09-26T00:08:00.591Z,11.23
2022-09-26T00:10:21.900Z,12.13
2022-09-26T00:12:43.201Z,10.93
2022-09-26T00:15:04.645Z,11.60
2022-09-26T00:17:26.137Z,11.50
2022-09-26T00:19:48.662Z,11.90
2022-09-26T00:22:10.053Z,10.80
2022-09-26T00:24:31.363Z,12.87
2022-09-26T00:26:52.646Z,12.33
2022-09-26T00:29:14.693Z,12.80
2022-09-26T00:31:37.672Z,14.40
2022-09-26T00:33:59.260Z,14.97
2022-09-26T00:36:26.830Z,14.67
2022-09-26T00:38:58.106Z,12.60
2022-09-26T00:41:19.546Z,12.30
2022-09-26T00:43:41.548Z,11.97
2022-09-26T00:46:04.440Z,11.70
2022-09-26T00:48:25.910Z,11.90
2022-09-26T00:50:47.793Z,14.97
2022-09-26T00:53:13.519Z,14.03
2022-09-26T00:55:36.332Z,14.57
2022-09-26T00:57:59.761Z,14.57
2022-09-26T01:00:20.843Z,14.50
2022-09-26T01:02:42.032Z,13.47
2022-09-26T01:05:04.001Z,13.90
2022-09-26T01:07:27.303Z,13.30
2022-09-26T01:09:50.072Z,14.43
2022-09-26T01:12:12.166Z,13.97
2022-09-26T01:14:34.392Z,13.40
2022-09-26T01:16:56.465Z,14.13
2022-09-26T01:19:22.793Z,14.43
2022-09-26T01:21:55.963Z,13.80
2022-09-26T01:24:39.314Z,13.87
2022-09-26T01:27:09.009Z,13.33
2022-09-26T01:29:44.080Z,13.60
2022-09-26T01:32:27.104Z,13.50
2022-09-26T01:34:53.091Z,13.13
2022-09-26T01:37:21.321Z,14.03
2022-09-26T01:39:48.158Z,12.50
2022-09-26T01:42:12.299Z,13.60
2022-09-26T01:44:36.471Z,13.67
2022-09-26T01:46:59.649Z,13.53
2022-09-26T01:49:25.837Z,13.43
2022-09-26T01:51:50.050Z,12.67
2022-09-26T01:54:13.656Z,12.90
2022-09-26T01:56:37.119Z,13.07
2022-09-26T01:59:01.059Z,12.97
2022-09-26T02:01:23.487Z,13.67
2022-09-26T02:03:47.283Z,13.10
2022-09-26T02:06:11.769Z,13.17
2022-09-26T02:08:37.007Z,12.87
2022-09-26T02:11:02.075Z,14.00
2022-09-26T02:13:24.633Z,14.40
2022-09-26T02:15:48.624Z,14.13
2022-09-26T02:18:13.567Z,14.50
2022-09-26T02:20:36.366Z,13.93
2022-09-26T02:23:00.235Z,13.97
2022-09-26T02:25:21.329Z,12.73
2022-09-26T02:27:42.882Z,13.77
2022-09-26T02:30:05.104Z,12.70
2022-09-26T02:32:28.515Z,12.97
2022-09-26T02:34:50.124Z,12.63
2022-09-26T02:37:11.086Z,12.23
2022-09-26T02:39:33.893Z,11.93
2022-09-26T02:42:01.827Z,13.33
2022-09-26T02:44:32.447Z,12.83
2022-09-26T02:47:02.657Z,13.00
2022-09-26T02:49:34.863Z,12.87
2022-09-26T02:52:11.185Z,12.10
2022-09-26T02:54:41.984Z,11.70
2022-09-26T02:57:10.749Z,11.67
2022-09-26T02:59:35.224Z,12.00
2022-09-26T03:02:01.418Z,11.80
2022-09-26T03:04:26.595Z,11.70
2022-09-26T03:06:49.269Z,11.87
2022-09-26T03:09:11.379Z,12.13
2022-09-26T03:11:34.347Z,12.90
2022-09-26T03:13:57.139Z,12.63
2022-09-26T03:16:18.760Z,13.17
2022-09-26T03:18:42.042Z,12.90
2022-09-26T03:21:03.080Z,13.53
2022-09-26T03:23:25.202Z,13.63
2022-09-26T03:25:46.737Z,14.93
2022-09-26T03:28:10.557Z,14.27
2022-09-26T03:30:31.581Z,14.13
2022-09-26T03:32:52.985Z,15.03
2022-09-26T03:35:14.345Z,13.90
2022-09-26T03:37:37.280Z,13.97
2022-09-26T03:39:58.319Z,14.03
2022-09-26T03:42:19.457Z,14.33
2022-09-26T03:44:42.901Z,13.23
2022-09-26T03:47:04.356Z,12.70
2022-09-26T03:49:25.767Z,13.80
2022-09-26T03:51:46.937Z,14.27
2022-09-26T03:54:08.410Z,14.47
2022-09-26T03:56:29.901Z,13.73
2022-09-26T03:58:51.345Z,13.00
2022-09-26T04:01:15.147Z,11.87
2022-09-26T04:03:37.238Z,13.30
2022-09-26T04:05:58.378Z,12.67
2022-09-26T04:08:19.564Z,13.63
2022-09-26T04:10:40.781Z,14.73
2022-09-26T04:13:03.110Z,15.60
2022-09-26T04:15:24.250Z,15.20
2022-09-26T04:17:46.951Z,13.30
2022-09-26T04:20:09.664Z,12.40
2022-09-26T04:22:30.888Z,12.53
2022-09-26T04:24:53.305Z,12.57
2022-09-26T04:27:15.446Z,12.57
2022-09-26T04:29:36.851Z,12.30
2022-09-26T04:31:58.398Z,12.83
2022-09-26T04:34:26.290Z,12.30
2022-09-26T04:36:51.653Z,12.37
2022-09-26T04:39:13.410Z,12.50
2022-09-26T04:41:35.524Z,13.03
2022-09-26T04:43:57.337Z,12.53
2022-09-26T04:46:24.579Z,12.47
2022-09-26T04:48:48.281Z,13.63
2022-09-26T04:51:12.748Z,15.43
2022-09-26T04:53:34.007Z,14.70
2022-09-26T04:55:55.100Z,15.23
2022-09-26T04:58:17.459Z,14.13
2022-09-26T05:00:42.186Z,14.13
2022-09-26T05:03:03.379Z,14.17
2022-09-26T05:05:24.678Z,14.10
2022-09-26T05:07:47.110Z,13.80
2022-09-26T05:10:10.876Z,13.67
2022-09-26T05:12:33.304Z,13.87
2022-09-26T05:14:55.403Z,14.20
2022-09-26T05:17:16.797Z,13.43
2022-09-26T05:19:38.289Z,13.30
2022-09-26T05:21:59.469Z,13.60
2022-09-26T05:24:39.537Z,13.60
2022-09-26T05:27:01.165Z,12.70
2022-09-26T05:29:22.805Z,13.57
2022-09-26T05:31:44.381Z,13.40
2022-09-26T05:34:05.620Z,13.10
2022-09-26T05:36:27.588Z,13.10
2022-09-26T05:38:49.202Z,12.13
2022-09-26T05:41:11.582Z,13.00
2022-09-26T05:43:33.636Z,13.57
2022-09-26T05:45:58.458Z,13.17
2022-09-26T05:48:19.387Z,14.03
2022-09-26T05:50:43.603Z,13.60
2022-09-26T05:53:04.983Z,12.67
2022-09-26T05:55:26.354Z,13.43
2022-09-26T05:57:53.007Z,13.30
2022-09-26T06:00:14.412Z,13.27
2022-09-26T06:02:35.574Z,11.97
2022-09-26T06:04:57.601Z,12.20
2022-09-26T06:07:18.832Z,13.67
2022-09-26T06:09:40.255Z,13.80
2022-09-26T06:12:02.061Z,12.77
2022-09-26T06:14:26.573Z,12.63
2022-09-26T06:16:47.810Z,12.03
2022-09-26T06:19:08.743Z,12.10
2022-09-26T06:21:29.975Z,11.60
2022-09-26T06:23:51.471Z,12.60
2022-09-26T06:26:14.858Z,12.73
2022-09-26T06:28:36.696Z,13.10
2022-09-26T06:30:59.261Z,12.50
2022-09-26T06:33:20.684Z,12.90
2022-09-26T06:35:42.137Z,11.60
2022-09-26T06:38:04.936Z,11.97
2022-09-26T06:40:26.195Z,11.30
2022-09-26T06:42:47.620Z,10.40
2022-09-26T06:45:09.900Z,11.40
2022-09-26T06:47:33.544Z,9.90
2022-09-26T06:49:54.809Z,9.60
2022-09-26T06:52:16.150Z,9.57
2022-09-26T06:54:37.709Z,9.13
2022-09-26T06:56:58.782Z,9.90
2022-09-26T06:59:20.258Z,9.47
2022-09-26T07:01:41.569Z,9.90
2022-09-26T07:04:04.472Z,9.70
2022-09-26T07:06:26.701Z,9.77
2022-09-26T07:09:02.053Z,9.07
2022-09-26T07:12:12.423Z,9.33
2022-09-26T07:14:05.815Z,9.13
2022-09-26T07:16:27.837Z,8.67
2022-09-26T07:18:49.365Z,8.67
2022-09-26T07:21:12.328Z,8.53
2022-09-26T07:23:33.797Z,6.77
2022-09-26T07:25:55.413Z,6.03
2022-09-26T07:28:16.347Z,5.47
2022-09-26T07:30:38.091Z,5.70
2022-09-26T07:33:03.084Z,6.10
2022-09-26T07:35:24.925Z,6.13
2022-09-26T07:37:52.001Z,5.60
2022-09-26T07:40:13.381Z,5.83
2022-09-26T07:42:34.317Z,4.90
2022-09-26T07:45:22.309Z,4.70
2022-09-26T07:47:54.321Z,4.00
2022-09-26T07:50:16.622Z,3.90
2022-09-26T07:52:38.180Z,3.80
2022-09-26T07:55:00.985Z,3.80
2022-09-26T07:57:22.122Z,3.60
2022-09-26T07:59:43.624Z,3.50
2022-09-26T08:02:04.799Z,5.13
2022-09-26T08:04:26.137Z,4.20
2022-09-26T08:06:47.392Z,4.10
2022-09-26T08:09:08.673Z,4.00
2022-09-26T08:11:31.402Z,3.77
2022-09-26T08:13:52.509Z,3.77
2022-09-26T08:16:19.517Z,3.67
2022-09-26T08:18:42.061Z,3.37
2022-09-26T08:21:05.678Z,3.80
2022-09-26T08:23:26.745Z,3.70
2022-09-26T08:25:48.038Z,3.83
2022-09-26T08:28:12.260Z,3.37
2022-09-26T08:30:33.441Z,3.40
2022-09-26T08:32:54.774Z,3.70
2022-09-26T08:35:17.140Z,3.80
2022-09-26T08:37:38.275Z,3.37
2022-09-26T08:40:00.879Z,3.63
2022-09-26T08:42:32.868Z,3.57
2022-09-26T08:45:27.223Z,3.77
2022-09-26T08:47:50.717Z,3.30
2022-09-26T08:50:15.894Z,3.20
2022-09-26T08:52:38.660Z,3.43
2022-09-26T08:55:02.332Z,3.37
2022-09-26T08:57:29.538Z,2.90
2022-09-26T08:59:50.725Z,2.83
2022-09-26T09:02:17.826Z,2.60
2022-09-26T09:04:41.306Z,2.67
2022-09-26T09:07:05.526Z,2.90
2022-09-26T09:09:26.507Z,2.90
2022-09-26T09:11:53.452Z,2.73
2022-09-26T09:14:22.044Z,2.53
2022-09-26T09:16:51.559Z,3.20
2022-09-26T09:19:17.697Z,3.07
2022-09-26T09:21:42.667Z,3.00
2022-09-26T09:24:14.108Z,3.10
2022-09-26T09:29:27.415Z,2.90
2022-09-26T09:31:48.885Z,3.07
2022-09-26T09:34:11.467Z,3.40
2022-09-26T09:36:37.989Z,3.33
2022-09-26T09:39:00.986Z,3.00
2022-09-26T09:41:25.169Z,2.93
2022-09-26T09:43:48.463Z,3.27
2022-09-26T09:46:15.038Z,3.20
2022-09-26T09:48:36.564Z,3.10
2022-09-26T09:51:03.549Z,3.30
2022-09-26T09:53:34.481Z,3.00
2022-09-26T09:56:02.586Z,2.83
2022-09-26T09:58:39.732Z,3.07
2022-09-26T10:01:04.439Z,2.80
2022-09-26T10:03:26.679Z,3.00
2022-09-26T10:05:48.637Z,2.90
2022-09-26T10:08:13.230Z,2.60
2022-09-26T10:10:38.828Z,2.70
2022-09-26T10:13:00.344Z,2.57
2022-09-26T10:15:26.122Z,2.63
2022-09-26T10:18:22.939Z,2.90
2022-09-26T10:20:42.650Z,2.70
2022-09-26T10:23:10.227Z,2.50
2022-09-26T10:25:31.666Z,2.60
2022-09-26T10:27:55.111Z,2.90
2022-09-26T10:30:26.005Z,2.80
2022-09-26T10:32:50.797Z,2.70
2022-09-26T10:35:20.348Z,2.37
2022-09-26T10:37:41.781Z,2.47
2022-09-26T10:40:20.565Z,2.13
2022-09-26T10:42:43.159Z,2.47
2022-09-26T10:45:12.216Z,2.50
2022-09-26T10:47:34.377Z,2.80
2022-09-26T10:49:59.074Z,2.50
2022-09-26T10:52:23.973Z,2.40
2022-09-26T10:54:47.370Z,2.47
2022-09-26T10:57:09.554Z,2.10
2022-09-26T10:59:32.913Z,2.00
2022-09-26T11:01:58.355Z,1.93
2022-09-26T11:04:34.994Z,1.90
2022-09-26T11:06:56.139Z,1.90
2022-09-26T11:09:20.554Z,2.00
2022-09-26T11:11:43.115Z,2.13
2022-09-26T11:14:07.419Z,2.03
2022-09-26T11:16:31.572Z,1.80
2022-09-26T11:19:00.431Z,1.80
2022-09-26T11:21:29.226Z,2.10
2022-09-26T11:23:54.713Z,1.80
2022-09-26T11:26:19.696Z,1.80
2022-09-26T11:28:42.485Z,1.90
2022-09-26T11:31:08.909Z,1.83
2022-09-26T11:33:30.455Z,1.70
2022-09-26T11:35:58.706Z,1.90
2022-09-26T11:38:28.914Z,1.70
2022-09-26T11:41:02.383Z,1.87
2022-09-26T11:43:32.286Z,1.70
2022-09-26T11:46:02.976Z,1.73
2022-09-26T11:48:33.882Z,1.77
2022-09-26T11:51:02.745Z,1.97
2022-09-26T11:53:42.989Z,1.50
2022-09-26T11:56:14.518Z,1.47
2022-09-26T11:58:40.033Z,1.20
2022-09-26T12:01:05.707Z,1.10
2022-09-26T12:03:51.276Z,1.20
2022-09-26T12:06:19.336Z,1.10
2022-09-26T12:08:47.576Z,1.10
2022-09-26T12:11:15.407Z,1.30
2022-09-26T12:13:40.588Z,2.00
2022-09-26T12:16:04.384Z,1.20
2022-09-26T12:18:29.841Z,1.10
2022-09-26T12:20:57.151Z,1.30
2022-09-26T12:23:24.887Z,1.10
2022-09-26T12:25:55.057Z,1.80
2022-09-26T12:28:26.959Z,1.80
2022-09-26T12:30:51.846Z,1.40
2022-09-26T12:33:25.986Z,1.20
2022-09-26T12:35:51.960Z,1.60
2022-09-26T12:38:24.266Z,1.23
2022-09-26T12:40:52.527Z,1.50
2022-09-26T12:43:38.463Z,1.40
2022-09-26T12:46:05.275Z,1.20
2022-09-26T12:48:32.552Z,1.30
2022-09-26T12:51:00.571Z,1.30
2022-09-26T12:53:42.000Z,1.40
2022-09-26T12:56:09.097Z,1.40
2022-09-26T12:58:34.797Z,1.40
2022-09-26T13:00:59.180Z,1.37
2022-09-26T13:03:26.895Z,1.10
2022-09-26T13:06:06.281Z,1.00
2022-09-26T13:08:34.948Z,1.10
2022-09-26T13:11:02.637Z,1.20
2022-09-26T13:13:46.877Z,1.10
2022-09-26T13:16:19.979Z,1.17
2022-09-26T13:18:45.427Z,1.27
2022-09-26T13:21:08.138Z,1.17
2022-09-26T13:23:31.673Z,1.20
2022-09-26T13:25:55.789Z,1.60
2022-09-26T13:28:20.772Z,1.40
2022-09-26T13:30:43.475Z,1.40
2022-09-26T13:33:11.473Z,1.33
2022-09-26T13:35:36.809Z,1.30
2022-09-26T13:38:16.028Z,1.10
2022-09-26T13:40:41.855Z,1.10
2022-09-26T13:43:10.710Z,1.20
2022-09-26T13:45:41.051Z,1.10
2022-09-26T13:48:05.839Z,1.00
2022-09-26T13:50:31.324Z,1.40
2022-09-26T13:53:02.217Z,1.30
2022-09-26T13:55:25.363Z,1.00
2022-09-26T13:57:47.987Z,1.23
2022-09-26T14:00:30.405Z,1.10
2022-09-26T14:03:06.319Z,1.30
2022-09-26T14:05:46.386Z,1.30
2022-09-26T14:08:45.637Z,1.40
2022-09-26T14:11:14.737Z,1.10
2022-09-26T14:13:37.296Z,1.10
2022-09-26T14:16:00.301Z,1.10
2022-09-26T14:18:36.784Z,1.20
2022-09-26T14:21:04.948Z,1.40
2022-09-26T14:23:38.247Z,1.17
2022-09-26T14:26:05.521Z,1.20
2022-09-26T14:28:32.290Z,1.30
2022-09-26T14:31:11.156Z,1.17
2022-09-26T14:33:33.025Z,1.20
2022-09-26T14:36:14.621Z,1.20
2022-09-26T14:38:40.331Z,1.20
2022-09-26T14:41:04.344Z,1.30
2022-09-26T14:43:28.335Z,1.40
2022-09-26T14:45:51.048Z,1.20
2022-09-26T14:48:16.025Z,1.20
2022-09-26T14:50:44.301Z,1.60
2022-09-26T14:53:11.773Z,1.43
2022-09-26T14:55:35.028Z,1.33
2022-09-26T14:58:11.246Z,1.20
2022-09-26T15:00:37.057Z,1.23
2022-09-26T15:03:01.160Z,1.50
2022-09-26T15:05:24.434Z,1.20
2022-09-26T15:07:46.481Z,1.40
2022-09-26T15:10:18.792Z,1.43
2022-09-26T15:12:44.054Z,1.50
2022-09-26T15:15:10.032Z,1.30
2022-09-26T15:17:33.670Z,1.20
2022-09-26T15:19:57.455Z,1.20
2022-09-26T15:22:20.033Z,1.20
2022-09-26T15:24:41.155Z,1.20
2022-09-26T15:27:08.277Z,1.20
2022-09-26T15:29:31.069Z,1.10
2022-09-26T15:31:53.094Z,1.20
2022-09-26T15:34:17.339Z,1.10
2022-09-26T15:36:39.927Z,1.17
2022-09-26T15:39:01.365Z,1.30
2022-09-26T15:41:36.619Z,0.97
2022-09-26T15:44:01.735Z,1.10
2022-09-26T15:46:26.802Z,1.00
2022-09-26T15:48:48.478Z,1.20
2022-09-26T15:51:12.613Z,1.20
2022-09-26T15:53:36.563Z,1.10
2022-09-26T15:55:59.100Z,1.30
2022-09-26T15:58:22.332Z,1.30
2022-09-26T16:00:45.614Z,1.30
2022-09-26T16:03:34.277Z,1.27
2022-09-26T16:05:55.617Z,1.53
2022-09-26T16:08:20.881Z,1.33
2022-09-26T16:10:42.619Z,1.70
2022-09-26T16:13:03.960Z,1.53
2022-09-26T16:15:27.950Z,1.50
2022-09-26T16:17:52.918Z,1.30
2022-09-26T16:20:25.893Z,1.50
2022-09-26T16:22:51.067Z,1.27
2022-09-26T16:25:20.293Z,1.60
2022-09-26T16:27:41.422Z,1.30
2022-09-26T16:30:05.486Z,1.37
2022-09-26T16:32:27.007Z,1.60
2022-09-26T16:34:48.847Z,1.50
2022-09-26T16:37:18.577Z,1.50
2022-09-26T16:39:40.081Z,1.50
2022-09-26T16:42:05.712Z,1.50
2022-09-26T16:44:34.398Z,2.03
2022-09-26T16:46:58.860Z,1.50
2022-09-26T16:49:39.187Z,1.67
2022-09-26T16:52:10.987Z,1.80
2022-09-26T16:54:33.660Z,1.73
2022-09-26T16:56:55.225Z,1.97
2022-09-26T16:59:18.655Z,1.90
2022-09-26T17:01:54.089Z,1.60
2022-09-26T17:04:17.845Z,1.47
2022-09-26T17:06:39.186Z,1.60
2022-09-26T17:09:03.029Z,1.57
2022-09-26T17:11:26.125Z,1.40
2022-09-26T17:13:48.677Z,1.40
2022-09-26T17:16:10.518Z,1.40
2022-09-26T17:18:33.039Z,1.30
2022-09-26T17:20:54.185Z,1.70
2022-09-26T17:23:38.824Z,2.17
2022-09-26T17:25:57.892Z,2.10
2022-09-26T17:28:21.453Z,1.87
2022-09-26T17:30:42.443Z,1.63
2022-09-26T17:33:04.454Z,1.60
2022-09-26T17:35:26.708Z,1.47
2022-09-26T17:37:48.059Z,1.50
2022-09-26T17:40:13.808Z,1.73
2022-09-26T17:42:35.258Z,1.80
2022-09-26T17:44:57.919Z,1.57
2022-09-26T17:47:20.075Z,1.57
2022-09-26T17:49:42.796Z,1.73
2022-09-26T17:52:04.928Z,1.63
2022-09-26T17:54:28.224Z,1.80
2022-09-26T17:56:49.433Z,1.80
2022-09-26T17:59:19.146Z,1.70
2022-09-26T18:01:41.867Z,1.70
2022-09-26T18:04:06.331Z,1.63
2022-09-26T18:06:28.877Z,1.63
2022-09-26T18:08:50.174Z,1.60
2022-09-26T18:11:15.964Z,1.80
2022-09-26T18:13:39.761Z,1.93
2022-09-26T18:16:01.302Z,1.70
2022-09-26T18:18:24.770Z,1.93
2022-09-26T18:20:47.505Z,1.60
2022-09-26T18:23:11.349Z,1.70
2022-09-26T18:25:34.184Z,2.63
2022-09-26T18:27:56.749Z,8.40
2022-09-26T18:30:18.631Z,3.60
2022-09-26T18:32:41.911Z,2.40
2022-09-26T18:35:04.427Z,1.70
2022-09-26T18:37:26.198Z,1.57
2022-09-26T18:39:52.177Z,1.70
2022-09-26T18:42:20.518Z,1.80
2022-09-26T18:44:43.025Z,1.83
2022-09-26T18:47:05.935Z,1.60
2022-09-26T18:49:27.321Z,1.90
2022-09-26T18:51:50.325Z,1.93
2022-09-26T18:54:13.394Z,1.60
2022-09-26T18:56:52.227Z,2.00
2022-09-26T18:59:14.745Z,1.87
2022-09-26T19:01:38.129Z,1.97
2022-09-26T19:04:01.246Z,2.00
2022-09-26T19:06:24.148Z,2.03
2022-09-26T19:08:47.940Z,2.00
2022-09-26T19:11:12.921Z,1.80
2022-09-26T19:13:33.788Z,2.10
2022-09-26T19:15:55.177Z,2.30
2022-09-26T19:18:16.425Z,2.10
2022-09-26T19:20:37.708Z,1.90
2022-09-26T19:22:59.361Z,1.80
2022-09-26T19:25:28.672Z,1.83
2022-09-26T19:27:52.058Z,1.80
2022-09-26T19:30:15.422Z,1.80
2022-09-26T19:32:37.999Z,2.00
2022-09-26T19:35:00.956Z,1.90
2022-09-26T19:37:22.204Z,2.23
2022-09-26T19:39:43.347Z,1.83
2022-09-26T19:42:06.017Z,1.90
2022-09-26T19:44:26.990Z,2.10
2022-09-26T19:46:48.539Z,2.20
2022-09-26T19:49:15.557Z,1.90
2022-09-26T19:51:39.464Z,1.83
2022-09-26T19:54:05.965Z,2.40
2022-09-26T19:56:27.706Z,2.40
2022-09-26T19:58:51.657Z,2.40
2022-09-26T20:01:15.973Z,2.13
2022-09-26T20:03:40.000Z,2.07
2022-09-26T20:06:01.438Z,2.20
2022-09-26T20:08:25.043Z,2.57
2022-09-26T20:10:46.474Z,2.27
2022-09-26T20:13:07.630Z,2.40
2022-09-26T20:15:32.411Z,2.40
2022-09-26T20:17:55.080Z,4.00
2022-09-26T20:20:17.156Z,3.87
2022-09-26T20:22:38.340Z,3.77
2022-09-26T20:24:59.465Z,4.00
2022-09-26T20:27:22.579Z,4.50
2022-09-26T20:30:01.679Z,3.90
2022-09-26T20:32:24.295Z,3.43
2022-09-26T20:34:46.666Z,3.20
2022-09-26T20:37:10.297Z,3.57
2022-09-26T20:39:31.619Z,3.97
2022-09-26T20:41:53.433Z,3.83
2022-09-26T20:44:17.824Z,3.40
2022-09-26T20:46:39.991Z,3.83
2022-09-26T20:49:04.313Z,2.80
2022-09-26T20:51:28.165Z,3.93
2022-09-26T20:53:49.551Z,3.90
2022-09-26T20:56:13.920Z,3.87
2022-09-26T20:58:35.331Z,5.03
2022-09-26T21:00:59.275Z,3.40
2022-09-26T21:03:21.938Z,4.70
2022-09-26T21:05:45.162Z,4.47
2022-09-26T21:08:09.273Z,3.67
2022-09-26T21:10:30.932Z,3.40
2022-09-26T21:12:52.339Z,3.27
2022-09-26T21:15:13.409Z,2.30
2022-09-26T21:17:34.825Z,2.30
2022-09-26T21:19:56.454Z,2.77
2022-09-26T21:22:26.483Z,2.83
2022-09-26T21:24:49.225Z,1.93
2022-09-26T21:27:10.815Z,2.43
2022-09-26T21:29:32.025Z,2.27
2022-09-26T21:31:56.150Z,1.70
2022-09-26T21:34:19.808Z,2.20
2022-09-26T21:36:41.737Z,1.90
2022-09-26T21:39:04.521Z,1.87
2022-09-26T21:41:25.721Z,1.90
2022-09-26T21:43:48.598Z,1.80
2022-09-26T21:46:09.893Z,1.77
2022-09-26T21:48:31.045Z,1.80
2022-09-26T21:50:57.845Z,1.90
2022-09-26T21:53:22.189Z,1.90
2022-09-26T21:55:48.151Z,1.77
2022-09-26T21:58:12.979Z,1.87
2022-09-26T22:00:34.348Z,1.80
2022-09-26T22:02:58.634Z,1.80
2022-09-26T22:05:19.788Z,1.63
2022-09-26T22:07:41.157Z,1.60
2022-09-26T22:10:02.525Z,1.63
2022-09-26T22:12:25.240Z,1.90
2022-09-26T22:14:46.328Z,2.07
2022-09-26T22:17:07.675Z,1.60
2022-09-26T22:19:33.245Z,1.90
2022-09-26T22:21:55.091Z,1.60
2022-09-26T22:24:16.281Z,1.80
2022-09-26T22:26:37.628Z,1.60
2022-09-26T22:29:00.431Z,1.50
2022-09-26T22:31:21.688Z,1.50
2022-09-26T22:33:43.133Z,1.47
2022-09-26T22:36:04.479Z,1.50
2022-09-26T22:38:25.617Z,1.30
2022-09-26T22:40:46.733Z,1.27
2022-09-26T22:43:08.182Z,1.23
2022-09-26T22:45:30.580Z,1.30
2022-09-26T22:47:51.935Z,1.57
2022-09-26T22:50:13.181Z,1.33
2022-09-26T22:52:34.384Z,1.27
2022-09-26T22:54:55.789Z,1.50
2022-09-26T22:57:17.449Z,1.40
2022-09-26T22:59:39.223Z,1.40
2022-09-26T23:02:01.740Z,1.50
2022-09-26T23:04:23.063Z,1.40
2022-09-26T23:06:44.457Z,1.67
2022-09-26T23:09:05.773Z,1.50
2022-09-26T23:11:27.968Z,1.43
2022-09-26T23:13:50.940Z,1.50
2022-09-26T23:16:13.608Z,1.60
2022-09-26T23:18:36.557Z,1.30
2022-09-26T23:20:58.493Z,1.60
2022-09-26T23:23:19.548Z,1.33
2022-09-26T23:25:45.696Z,1.40
2022-09-26T23:28:06.784Z,1.30
2022-09-26T23:30:28.267Z,1.50
2022-09-26T23:32:50.040Z,1.67
2022-09-26T23:35:12.539Z,1.23
2022-09-26T23:37:33.789Z,1.47
2022-09-26T23:39:55.308Z,1.70
2022-09-26T23:42:16.728Z,1.40
2022-09-26T23:44:38.025Z,1.40
2022-09-26T23:47:02.523Z,1.73
2022-09-26T23:49:23.612Z,1.47
2022-09-26T23:51:47.578Z,1.53
2022-09-26T23:54:08.889Z,1.40
2022-09-26T23:56:30.055Z,1.50
2022-09-26T23:58:51.464Z,1.50
